sensor_id;sensor_type;location;lat;lon;timestamp;pressure;altitude;pressure_sealevel;temperature;humidity
12793;BME280;6460;42.684;23.260;2022-11-20T22:08:02;93571.16;;;11.71;100.00
12793;BME280;6460;42.684;23.260;2022-11-20T22:10:30;93572.31;;;11.73;100.00
12793;BME280;6460;42.684;23.260;2022-11-20T22:12:57;93554.59;;;11.47;100.00
12793;BME280;6460;42.684;23.260;2022-11-20T22:15:46;93536.16;;;11.32;100.00
12793;BME280;6460;42.684;23.260;2022-11-20T22:18:12;93533.47;;;11.49;100.00
12793;BME280;6460;42.684;23.260;2022-11-20T22:20:39;93517.72;;;11.55;100.00
12793;BME280;6460;42.684;23.260;2022-11-20T22:23:07;93506.59;;;11.28;100.00
12793;BME280;6460;42.684;23.260;2022-11-20T22:25:34;93531.94;;;11.41;100.00
12793;BME280;6460;42.684;23.260;2022-11-20T22:28:01;93523.84;;;11.59;100.00
12793;BME280;6460;42.684;23.260;2022-11-20T22:30:28;93516.53;;;11.52;100.00
12793;BME280;6460;42.684;23.260;2022-11-20T22:32:54;93500.03;;;11.50;100.00
12793;BME280;6460;42.684;23.260;2022-11-20T22:35:21;93495.41;;;11.58;100.00
12793;BME280;6460;42.684;23.260;2022-11-20T22:37:48;93502.72;;;11.40;100.00
12793;BME280;6460;42.684;23.260;2022-11-20T22:40:16;93496.16;;;11.69;100.00
12793;BME280;6460;42.684;23.260;2022-11-20T22:42:45;93484.25;;;11.63;100.00
12793;BME280;6460;42.684;23.260;2022-11-20T22:45:13;93481.97;;;11.33;100.00
12793;BME280;6460;42.684;23.260;2022-11-20T22:47:41;93475.03;;;11.53;100.00
12793;BME280;6460;42.684;23.260;2022-11-20T22:50:08;93465.06;;;11.50;100.00
12793;BME280;6460;42.684;23.260;2022-11-20T22:52:35;93442.72;;;11.71;100.00
12793;BME280;6460;42.684;23.260;2022-11-20T22:55:02;93425.47;;;11.54;100.00
12793;BME280;6460;42.684;23.260;2022-11-20T22:57:30;93425.44;;;11.58;100.00
12793;BME280;6460;42.684;23.260;2022-11-20T22:59:58;93399.28;;;11.73;100.00
12793;BME280;6460;42.684;23.260;2022-11-20T23:02:25;93406.19;;;11.77;100.00
12793;BME280;6460;42.684;23.260;2022-11-20T23:04:51;93392.78;;;11.56;100.00
12793;BME280;6460;42.684;23.260;2022-11-20T23:07:18;93390.84;;;11.74;100.00
12793;BME280;6460;42.684;23.260;2022-11-20T23:09:45;93403.25;;;11.29;100.00
12793;BME280;6460;42.684;23.260;2022-11-20T23:12:12;93389.75;;;11.36;100.00
12793;BME280;6460;42.684;23.260;2022-11-20T23:14:41;93407.84;;;11.18;100.00
12793;BME280;6460;42.684;23.260;2022-11-20T23:17:07;93390.16;;;11.38;100.00
12793;BME280;6460;42.684;23.260;2022-11-20T23:19:35;93378.19;;;11.53;100.00
12793;BME280;6460;42.684;23.260;2022-11-20T23:22:01;93340.47;;;11.64;100.00
12793;BME280;6460;42.684;23.260;2022-11-20T23:24:28;93332.78;;;11.66;100.00
12793;BME280;6460;42.684;23.260;2022-11-20T23:26:55;93327.00;;;11.67;100.00
12793;BME280;6460;42.684;23.260;2022-11-20T23:29:22;93336.28;;;11.56;100.00
12793;BME280;6460;42.684;23.260;2022-11-20T23:31:50;93327.78;;;11.64;100.00
12793;BME280;6460;42.684;23.260;2022-11-20T23:34:17;93317.75;;;11.68;100.00
12793;BME280;6460;42.684;23.260;2022-11-20T23:36:45;93300.84;;;11.75;100.00
12793;BME280;6460;42.684;23.260;2022-11-20T23:39:20;93302.72;;;10.81;100.00
12793;BME280;6460;42.684;23.260;2022-11-20T23:41:47;93302.22;;;11.14;100.00
12793;BME280;6460;42.684;23.260;2022-11-20T23:44:14;93324.63;;;10.58;100.00
12793;BME280;6460;42.684;23.260;2022-11-20T23:46:41;93313.06;;;10.89;100.00
12793;BME280;6460;42.684;23.260;2022-11-20T23:49:10;93320.34;;;10.92;100.00
12793;BME280;6460;42.684;23.260;2022-11-20T23:51:37;93323.78;;;10.96;100.00
12793;BME280;6460;42.684;23.260;2022-11-20T23:54:04;93294.91;;;11.25;100.00
12793;BME280;6460;42.684;23.260;2022-11-20T23:56:32;93301.03;;;11.29;100.00
12793;BME280;6460;42.684;23.260;2022-11-20T23:59:05;93293.31;;;11.35;100.00
